createdAt,value
2023-04-20T00:00:18.659Z,50.907425
2023-04-20T00:01:18.672Z,50.907425
2023-04-20T00:02:18.722Z,50.907425
2023-04-20T00:03:18.796Z,50.906837
2023-04-20T00:04:18.664Z,50.906837
2023-04-20T00:05:18.687Z,50.906837
2023-04-20T00:06:18.646Z,50.907349
2023-04-20T00:07:18.661Z,50.907875
2023-04-20T00:08:18.591Z,50.908180
2023-04-20T00:09:18.815Z,50.908241
2023-04-20T00:10:18.585Z,50.908260
2023-04-20T00:11:18.585Z,50.908276
2023-04-20T00:12:18.582Z,50.908199
2023-04-20T00:13:19.554Z,50.908115
2023-04-20T00:14:18.533Z,50.908150
2023-04-20T00:15:18.562Z,50.908089
2023-04-20T00:16:18.585Z,50.908051
2023-04-20T00:17:18.613Z,50.908207
2023-04-20T00:18:18.520Z,50.907967
2023-04-20T00:19:18.696Z,50.908024
2023-04-20T00:20:18.504Z,50.908005
2023-04-20T00:21:18.506Z,50.907906
2023-04-20T00:22:18.489Z,50.907906
2023-04-20T00:23:18.468Z,50.907906
2023-04-20T00:24:18.463Z,50.907906
2023-04-20T00:25:18.479Z,50.907906
2023-04-20T00:26:18.471Z,50.907906
2023-04-20T00:27:18.453Z,50.907906
2023-04-20T00:28:18.429Z,50.907658
2023-04-20T00:29:18.629Z,50.907658
2023-04-20T00:30:18.413Z,50.907658
2023-04-20T00:31:18.504Z,50.907818
2023-04-20T00:32:18.402Z,50.907780
2023-04-20T00:33:18.404Z,50.907928
2023-04-20T00:34:18.389Z,50.907944
2023-04-20T00:35:18.370Z,50.907909
2023-04-20T00:36:18.386Z,50.907867
2023-04-20T00:37:18.350Z,50.907932
2023-04-20T00:38:18.356Z,50.908085
2023-04-20T00:39:18.537Z,50.908131
2023-04-20T00:40:18.344Z,50.908226
2023-04-20T00:41:18.390Z,50.908226
2023-04-20T00:42:18.315Z,50.908226
2023-04-20T00:43:18.321Z,50.908226
2023-04-20T00:44:18.309Z,50.908226
2023-04-20T00:45:18.296Z,50.908226
2023-04-20T00:46:18.374Z,50.908226
2023-04-20T00:47:18.275Z,50.908226
2023-04-20T00:48:19.269Z,50.908226
2023-04-20T00:49:18.542Z,50.908226
2023-04-20T00:50:18.264Z,50.908226
2023-04-20T00:51:18.273Z,50.908226
2023-04-20T00:52:18.240Z,50.908226
2023-04-20T00:53:18.240Z,50.908226
2023-04-20T00:54:18.225Z,50.908226
2023-04-20T00:55:18.223Z,50.908226
2023-04-20T00:56:18.237Z,50.908226
2023-04-20T00:57:18.222Z,50.908226
2023-04-20T00:58:18.202Z,50.908226
2023-04-20T00:59:18.344Z,50.908226
2023-04-20T01:00:18.177Z,50.908226
2023-04-20T01:01:18.235Z,50.908226
2023-04-20T01:02:18.226Z,50.908226
2023-04-20T01:03:18.261Z,50.908226
2023-04-20T01:04:18.212Z,50.908226
2023-04-20T01:05:18.150Z,50.908226
2023-04-20T01:06:18.189Z,50.908226
2023-04-20T01:07:18.122Z,50.908226
2023-04-20T01:08:19.147Z,50.908226
2023-04-20T01:09:18.232Z,50.908226
2023-04-20T01:10:18.097Z,50.908226
2023-04-20T01:11:18.129Z,50.907909
2023-04-20T01:12:18.095Z,50.907894
2023-04-20T01:13:18.075Z,50.907894
2023-04-20T01:14:18.070Z,50.907894
2023-04-20T01:15:18.077Z,50.907990
2023-04-20T01:16:18.086Z,50.908031
2023-04-20T01:17:18.101Z,50.908031
2023-04-20T01:18:18.040Z,50.908031
2023-04-20T01:19:18.275Z,50.908047
2023-04-20T01:20:18.018Z,50.908131
2023-04-20T01:21:18.034Z,50.908131
2023-04-20T01:22:18.014Z,50.908131
2023-04-20T01:23:17.991Z,50.908119
2023-04-20T01:24:17.991Z,50.908073
2023-04-20T01:25:17.984Z,50.908134
2023-04-20T01:26:18.000Z,50.908195
2023-04-20T01:27:17.967Z,50.908138
2023-04-20T01:28:17.955Z,50.908108
2023-04-20T01:29:18.059Z,50.908180
2023-04-20T01:30:17.943Z,50.908176
2023-04-20T01:31:17.978Z,50.908180
2023-04-20T01:32:17.922Z,50.908413
2023-04-20T01:33:17.929Z,50.908318
2023-04-20T01:34:17.913Z,50.908234
2023-04-20T01:35:17.912Z,50.908188
2023-04-20T01:36:17.923Z,50.908123
2023-04-20T01:37:17.888Z,50.908134
2023-04-20T01:38:17.880Z,50.908131
2023-04-20T01:39:18.057Z,50.908134
2023-04-20T01:40:17.865Z,50.908165
2023-04-20T01:41:17.884Z,50.908169
2023-04-20T01:42:17.846Z,50.908150
2023-04-20T01:43:17.840Z,50.908157
2023-04-20T01:44:17.843Z,50.908092
2023-04-20T01:45:17.832Z,50.908096
2023-04-20T01:46:17.848Z,50.908115
2023-04-20T01:47:17.813Z,50.908138
2023-04-20T01:48:17.807Z,50.908112
2023-04-20T01:49:17.956Z,50.908108
2023-04-20T01:50:17.793Z,50.908104
2023-04-20T01:51:17.803Z,50.908150
2023-04-20T01:52:17.770Z,50.908108
2023-04-20T01:53:17.772Z,50.908092
2023-04-20T01:54:17.763Z,50.908096
2023-04-20T01:55:19.554Z,50.908104
2023-04-20T01:56:17.771Z,50.908142
2023-04-20T01:57:17.733Z,50.908134
2023-04-20T01:58:17.726Z,50.908146
2023-04-20T01:59:17.881Z,50.908123
2023-04-20T02:00:17.719Z,50.908154
2023-04-20T02:01:17.744Z,50.908180
2023-04-20T02:02:17.751Z,50.908108
2023-04-20T02:03:17.866Z,50.908142
2023-04-20T02:04:17.694Z,50.908180
2023-04-20T02:05:17.677Z,50.908100
2023-04-20T02:06:17.701Z,50.908073
2023-04-20T02:07:17.659Z,50.908371
2023-04-20T02:08:17.649Z,50.908192
2023-04-20T02:09:17.816Z,50.908249
2023-04-20T02:10:17.634Z,50.908279
2023-04-20T02:11:17.658Z,50.908302
2023-04-20T02:12:17.620Z,50.908333
2023-04-20T02:13:17.609Z,50.908306
2023-04-20T02:14:17.609Z,50.908253
2023-04-20T02:15:17.594Z,50.908329
2023-04-20T02:16:17.591Z,50.908268
2023-04-20T02:17:17.615Z,50.908184
2023-04-20T02:18:17.573Z,50.908169
2023-04-20T02:19:17.759Z,50.908077
2023-04-20T02:20:17.552Z,50.907898
2023-04-20T02:21:17.544Z,50.907955
2023-04-20T02:22:17.575Z,50.908070
2023-04-20T02:23:17.526Z,50.908081
2023-04-20T02:24:17.525Z,50.908115
2023-04-20T02:25:17.511Z,50.908138
2023-04-20T02:26:17.505Z,50.908089
2023-04-20T02:27:17.524Z,50.908092
2023-04-20T02:28:17.486Z,50.908085
2023-04-20T02:29:17.869Z,50.908173
2023-04-20T02:30:17.487Z,50.908161
2023-04-20T02:31:17.473Z,50.908165
2023-04-20T02:32:17.518Z,50.908184
2023-04-20T02:33:17.471Z,50.908131
2023-04-20T02:34:17.439Z,50.908138
2023-04-20T02:35:17.429Z,50.908215
2023-04-20T02:36:17.424Z,50.908188
2023-04-20T02:37:17.439Z,50.908169
2023-04-20T02:38:17.405Z,50.908138
2023-04-20T02:39:17.649Z,50.908161
2023-04-20T02:40:17.399Z,50.908138
2023-04-20T02:41:17.382Z,50.908092
2023-04-20T02:42:17.399Z,50.908169
2023-04-20T02:43:17.369Z,50.908089
2023-04-20T02:44:17.442Z,50.908051
2023-04-20T02:45:17.351Z,50.908051
2023-04-20T02:46:17.383Z,50.908134
2023-04-20T02:47:17.462Z,50.908146
2023-04-20T02:48:17.340Z,50.908119
2023-04-20T02:49:17.469Z,50.908150
2023-04-20T02:50:17.326Z,50.908195
2023-04-20T02:51:17.327Z,50.908104
2023-04-20T02:52:17.332Z,50.908123
2023-04-20T02:53:17.305Z,50.908073
2023-04-20T02:54:17.293Z,50.908096
2023-04-20T02:55:17.272Z,50.908051
2023-04-20T02:56:17.274Z,50.907997
2023-04-20T02:57:17.287Z,50.908089
2023-04-20T02:58:17.253Z,50.908123
2023-04-20T02:59:17.536Z,50.908173
2023-04-20T03:00:17.250Z,50.908176
2023-04-20T03:01:17.233Z,50.908123
2023-04-20T03:02:17.354Z,50.908138
2023-04-20T03:03:17.331Z,50.908127
2023-04-20T03:04:17.309Z,50.908176
2023-04-20T03:05:17.205Z,50.908131
2023-04-20T03:06:17.218Z,50.908150
2023-04-20T03:07:17.183Z,50.908245
2023-04-20T03:08:17.181Z,50.908283
2023-04-20T03:09:17.374Z,50.908260
2023-04-20T03:10:17.161Z,50.908146
2023-04-20T03:11:17.182Z,50.908157
2023-04-20T03:12:17.148Z,50.908134
2023-04-20T03:13:17.142Z,50.908146
2023-04-20T03:14:17.133Z,50.908142
2023-04-20T03:15:17.116Z,50.908127
2023-04-20T03:16:17.174Z,50.908173
2023-04-20T03:17:17.113Z,50.908119
2023-04-20T03:18:17.091Z,50.908085
2023-04-20T03:19:17.282Z,50.907948
2023-04-20T03:20:17.081Z,50.908173
2023-04-20T03:21:17.103Z,50.908127
2023-04-20T03:22:17.078Z,50.908058
2023-04-20T03:23:17.066Z,50.907997
2023-04-20T03:24:17.058Z,50.908131
2023-04-20T03:25:17.039Z,50.908028
2023-04-20T03:26:17.034Z,50.908230
2023-04-20T03:27:17.049Z,50.908211
2023-04-20T03:28:17.018Z,50.908077
2023-04-20T03:29:17.204Z,50.908115
2023-04-20T03:30:16.986Z,50.908016
2023-04-20T03:31:18.090Z,50.908016
2023-04-20T03:32:16.986Z,50.908039
2023-04-20T03:33:16.977Z,50.908051
2023-04-20T03:34:16.974Z,50.908188
2023-04-20T03:35:16.955Z,50.907978
2023-04-20T03:36:16.954Z,50.908016
2023-04-20T03:37:16.973Z,50.908207
2023-04-20T03:38:16.966Z,50.908184
2023-04-20T03:39:17.343Z,50.908237
2023-04-20T03:40:16.927Z,50.908142
2023-04-20T03:41:16.922Z,50.908203
2023-04-20T03:42:16.936Z,50.908199
2023-04-20T03:43:16.895Z,50.908203
2023-04-20T03:44:16.919Z,50.908173
2023-04-20T03:45:17.886Z,50.908237
2023-04-20T03:46:16.946Z,50.908077
2023-04-20T03:47:16.914Z,50.908199
2023-04-20T03:48:16.934Z,50.908134
2023-04-20T03:49:17.072Z,50.908188
2023-04-20T03:50:16.861Z,50.908230
2023-04-20T03:51:16.857Z,50.908188
2023-04-20T03:52:16.901Z,50.908161
2023-04-20T03:53:16.845Z,50.908157
2023-04-20T03:54:16.806Z,50.908180
2023-04-20T03:55:16.806Z,50.908115
2023-04-20T03:56:16.818Z,50.908150
2023-04-20T03:57:16.817Z,50.908131
2023-04-20T03:58:16.776Z,50.908077
2023-04-20T03:59:16.986Z,50.908337
2023-04-20T04:00:16.792Z,50.908173
2023-04-20T04:01:16.809Z,50.908195
2023-04-20T04:02:16.853Z,50.908131
2023-04-20T04:03:16.906Z,50.908024
2023-04-20T04:04:16.958Z,50.908092
2023-04-20T04:05:16.819Z,50.908058
2023-04-20T04:06:16.725Z,50.908127
2023-04-20T04:07:16.733Z,50.908070
2023-04-20T04:08:16.706Z,50.908051
2023-04-20T04:09:16.918Z,50.908070
2023-04-20T04:10:16.675Z,50.908070
2023-04-20T04:11:17.681Z,50.908070
2023-04-20T04:12:16.696Z,50.908070
2023-04-20T04:13:16.662Z,50.908070
2023-04-20T04:14:16.661Z,50.908070
2023-04-20T04:15:16.660Z,50.908070
2023-04-20T04:16:16.646Z,50.908070
2023-04-20T04:17:16.883Z,50.908180
2023-04-20T04:18:16.637Z,50.908226
2023-04-20T04:19:16.899Z,50.908169
2023-04-20T04:20:16.624Z,50.908096
2023-04-20T04:21:16.614Z,50.908154
2023-04-20T04:22:16.629Z,50.908157
2023-04-20T04:23:16.601Z,50.908150
2023-04-20T04:24:16.577Z,50.908131
2023-04-20T04:25:16.581Z,50.908154
2023-04-20T04:26:16.569Z,50.908169
2023-04-20T04:27:16.586Z,50.908070
2023-04-20T04:28:16.548Z,50.908134
2023-04-20T04:29:16.688Z,50.908131
2023-04-20T04:30:16.550Z,50.908142
2023-04-20T04:31:16.561Z,50.908211
2023-04-20T04:32:16.549Z,50.908150
2023-04-20T04:33:16.528Z,50.908195
2023-04-20T04:34:16.521Z,50.908192
2023-04-20T04:35:16.530Z,50.908356
2023-04-20T04:36:16.741Z,50.908184
2023-04-20T04:37:16.523Z,50.908203
2023-04-20T04:38:16.508Z,50.908253
2023-04-20T04:39:16.614Z,50.908184
2023-04-20T04:40:16.482Z,50.908161
2023-04-20T04:41:16.460Z,50.908176
2023-04-20T04:42:16.499Z,50.908207
2023-04-20T04:43:16.456Z,50.908157
2023-04-20T04:44:16.441Z,50.908180
2023-04-20T04:45:16.437Z,50.908173
2023-04-20T04:46:16.442Z,50.908100
2023-04-20T04:47:16.601Z,50.908146
2023-04-20T04:48:16.418Z,50.908176
2023-04-20T04:49:16.995Z,50.908276
2023-04-20T04:50:16.392Z,50.908169
2023-04-20T04:51:16.393Z,50.908165
2023-04-20T04:52:16.400Z,50.908142
2023-04-20T04:53:16.376Z,50.908157
2023-04-20T04:54:16.367Z,50.908161
2023-04-20T04:55:16.611Z,50.908127
2023-04-20T04:56:17.348Z,50.908154
2023-04-20T04:57:16.375Z,50.908146
2023-04-20T04:58:16.339Z,50.908127
2023-04-20T04:59:16.531Z,50.908142
2023-04-20T05:00:16.324Z,50.908127
2023-04-20T05:01:16.308Z,50.908176
2023-04-20T05:02:16.644Z,50.908157
2023-04-20T05:03:16.416Z,50.908188
2023-04-20T05:04:16.373Z,50.908157
2023-04-20T05:05:16.278Z,50.908161
2023-04-20T05:06:16.273Z,50.908180
2023-04-20T05:07:16.298Z,50.908146
2023-04-20T05:08:16.260Z,50.908154
2023-04-20T05:09:16.642Z,50.908081
2023-04-20T05:10:16.253Z,50.908142
2023-04-20T05:11:16.244Z,50.908154
2023-04-20T05:12:16.262Z,50.908131
2023-04-20T05:13:16.221Z,50.908131
2023-04-20T05:14:16.221Z,50.908112
2023-04-20T05:15:16.249Z,50.908154
2023-04-20T05:16:16.294Z,50.908142
2023-04-20T05:17:16.226Z,50.908123
2023-04-20T05:18:16.175Z,50.908104
2023-04-20T05:19:16.359Z,50.908131
2023-04-20T05:20:16.162Z,50.908138
2023-04-20T05:21:16.158Z,50.908146
2023-04-20T05:22:16.145Z,50.908134
2023-04-20T05:23:16.165Z,50.908123
2023-04-20T05:24:16.144Z,50.908142
2023-04-20T05:25:16.127Z,50.908134
2023-04-20T05:26:16.116Z,50.908100
2023-04-20T05:27:16.165Z,50.908138
2023-04-20T05:28:16.103Z,50.908089
2023-04-20T05:29:16.293Z,50.908119
2023-04-20T05:30:20.191Z,50.908127
2023-04-20T05:31:18.104Z,50.908127
2023-04-20T05:32:16.075Z,50.908123
2023-04-20T05:33:16.080Z,50.908146
2023-04-20T05:34:16.062Z,50.908131
2023-04-20T05:35:16.051Z,50.908081
2023-04-20T05:36:16.045Z,50.908123
2023-04-20T05:37:16.038Z,50.908142
2023-04-20T05:38:16.059Z,50.908134
2023-04-20T05:39:16.280Z,50.908119
2023-04-20T05:40:16.031Z,50.908115
2023-04-20T05:41:16.007Z,50.908157
2023-04-20T05:42:15.999Z,50.908146
2023-04-20T05:43:16.012Z,50.908161
2023-04-20T05:44:15.987Z,50.908123
2023-04-20T05:45:15.996Z,50.908127
2023-04-20T05:46:15.995Z,50.908161
2023-04-20T05:47:15.966Z,50.908150
2023-04-20T05:48:15.970Z,50.908146
2023-04-20T05:49:16.095Z,50.908123
2023-04-20T05:50:15.939Z,50.908257
2023-04-20T05:51:15.928Z,50.908165
2023-04-20T05:52:15.919Z,50.908146
2023-04-20T05:53:15.936Z,50.908142
2023-04-20T05:54:15.905Z,50.907993
2023-04-20T05:55:17.983Z,50.908062
2023-04-20T05:56:16.940Z,50.908127
2023-04-20T05:57:15.878Z,50.908169
2023-04-20T05:58:15.909Z,50.908115
2023-04-20T05:59:16.100Z,50.908104
2023-04-20T06:00:15.873Z,50.908157
2023-04-20T06:01:15.850Z,50.908165
2023-04-20T06:02:15.895Z,50.908138
2023-04-20T06:03:16.032Z,50.908119
2023-04-20T06:04:16.188Z,50.908131
2023-04-20T06:05:15.846Z,50.908123
2023-04-20T06:06:16.803Z,50.908131
2023-04-20T06:07:16.813Z,50.908146
2023-04-20T06:08:15.824Z,50.908100
2023-04-20T06:09:15.846Z,50.908119
2023-04-20T06:10:15.780Z,50.908081
2023-04-20T06:11:15.774Z,50.908131
2023-04-20T06:12:15.765Z,50.908108
2023-04-20T06:13:15.785Z,50.908085
2023-04-20T06:14:15.757Z,50.908096
2023-04-20T06:15:15.746Z,50.908119
2023-04-20T06:16:15.774Z,50.908119
2023-04-20T06:17:15.714Z,50.908142
2023-04-20T06:18:16.753Z,50.908108
2023-04-20T06:19:15.947Z,50.908104
2023-04-20T06:20:15.712Z,50.908092
2023-04-20T06:21:15.721Z,50.908062
2023-04-20T06:22:15.692Z,50.908108
2023-04-20T06:23:15.722Z,50.908089
2023-04-20T06:24:15.676Z,50.908142
2023-04-20T06:25:16.670Z,50.908112
2023-04-20T06:26:15.664Z,50.908123
2023-04-20T06:27:15.655Z,50.908104
2023-04-20T06:28:15.674Z,50.908070
2023-04-20T06:29:15.856Z,50.908031
2023-04-20T06:30:15.637Z,50.908096
2023-04-20T06:31:15.680Z,50.908108
2023-04-20T06:32:15.614Z,50.908112
2023-04-20T06:33:15.634Z,50.908051
2023-04-20T06:34:15.599Z,50.908112
2023-04-20T06:35:15.610Z,50.908108
2023-04-20T06:36:15.586Z,50.908108
2023-04-20T06:37:15.576Z,50.908039
2023-04-20T06:38:15.599Z,50.908066
2023-04-20T06:39:15.930Z,50.908066
2023-04-20T06:40:16.326Z,50.908092
2023-04-20T06:41:16.608Z,50.908119
2023-04-20T06:42:15.534Z,50.908085
2023-04-20T06:43:15.555Z,50.908058
2023-04-20T06:44:15.520Z,50.908115
2023-04-20T06:45:15.522Z,50.908051
2023-04-20T06:46:15.540Z,50.908081
2023-04-20T06:47:15.500Z,50.908051
2023-04-20T06:48:30.976Z,50.908009
2023-04-20T06:49:17.735Z,50.907982
2023-04-20T06:50:15.484Z,50.908035
2023-04-20T06:51:15.469Z,50.908031
2023-04-20T06:52:15.462Z,50.908051
2023-04-20T06:53:15.471Z,50.908066
2023-04-20T06:54:15.445Z,50.908051
2023-04-20T06:55:15.433Z,50.908039
2023-04-20T06:56:15.426Z,50.908016
2023-04-20T06:57:15.415Z,50.908028
2023-04-20T06:58:15.443Z,50.907951
2023-04-20T06:59:15.474Z,50.908009
2023-04-20T07:00:15.404Z,50.908028
2023-04-20T07:01:15.394Z,50.908024
2023-04-20T07:02:15.487Z,50.908138
2023-04-20T07:03:15.460Z,50.908123
2023-04-20T07:04:15.432Z,50.908150
2023-04-20T07:05:15.359Z,50.908131
2023-04-20T07:06:15.353Z,50.908131
2023-04-20T07:07:15.346Z,50.908134
2023-04-20T07:08:15.366Z,50.908112
2023-04-20T07:09:15.435Z,50.908127
2023-04-20T07:10:15.330Z,50.908104
2023-04-20T07:11:15.313Z,50.908119
2023-04-20T07:12:15.321Z,50.908150
2023-04-20T07:13:15.335Z,50.908138
2023-04-20T07:14:15.298Z,50.908115
2023-04-20T07:15:15.285Z,50.908127
2023-04-20T07:16:15.323Z,50.908112
2023-04-20T07:17:15.265Z,50.908131
2023-04-20T07:18:15.307Z,50.908134
2023-04-20T07:19:15.390Z,50.908142
2023-04-20T07:20:15.256Z,50.908131
2023-04-20T07:21:15.275Z,50.908131
2023-04-20T07:22:15.227Z,50.908131
2023-04-20T07:23:15.246Z,50.908104
2023-04-20T07:24:15.212Z,50.908119
2023-04-20T07:25:15.213Z,50.908123
2023-04-20T07:26:15.199Z,50.908123
2023-04-20T07:27:15.200Z,50.908142
2023-04-20T07:28:15.205Z,50.908089
2023-04-20T07:29:15.290Z,50.908123
2023-04-20T07:30:15.180Z,50.908070
2023-04-20T07:31:15.149Z,50.908096
2023-04-20T07:32:15.247Z,50.908123
2023-04-20T07:33:15.219Z,50.908112
2023-04-20T07:34:15.173Z,50.908123
2023-04-20T07:35:15.117Z,50.908092
2023-04-20T07:36:15.131Z,50.908131
2023-04-20T07:37:15.121Z,50.908176
2023-04-20T07:38:15.130Z,50.908131
2023-04-20T07:39:15.098Z,50.908138
2023-04-20T07:40:15.082Z,50.908180
2023-04-20T07:41:15.076Z,50.908188
2023-04-20T07:42:15.092Z,50.908131
2023-04-20T07:43:15.083Z,50.908108
2023-04-20T07:44:15.098Z,50.908070
2023-04-20T07:45:15.054Z,50.908085
2023-04-20T07:46:15.193Z,50.908123
2023-04-20T07:47:15.036Z,50.908134
2023-04-20T07:48:15.253Z,50.908142
2023-04-20T07:49:15.085Z,50.908119
2023-04-20T07:50:15.022Z,50.908100
2023-04-20T07:51:15.010Z,50.908131
2023-04-20T07:52:17.232Z,50.908150
2023-04-20T07:53:16.024Z,50.908131
2023-04-20T07:54:14.979Z,50.908100
2023-04-20T07:55:15.122Z,50.908096
2023-04-20T07:56:14.959Z,50.908081
2023-04-20T07:57:14.966Z,50.908115
2023-04-20T07:58:14.978Z,50.908070
2023-04-20T07:59:14.990Z,50.908115
2023-04-20T08:00:14.971Z,50.908100
2023-04-20T08:01:14.936Z,50.908169
2023-04-20T08:02:14.981Z,50.908169
2023-04-20T08:03:15.118Z,50.908108
2023-04-20T08:04:15.388Z,50.908100
2023-04-20T08:05:15.049Z,50.908131
2023-04-20T08:06:14.894Z,50.908146
2023-04-20T08:07:14.884Z,50.908131
2023-04-20T08:08:14.914Z,50.908146
2023-04-20T08:09:14.928Z,50.908081
2023-04-20T08:10:14.866Z,50.908043
2023-04-20T08:11:14.853Z,50.908066
2023-04-20T08:12:14.845Z,50.908092
2023-04-20T08:13:14.869Z,50.908131
2023-04-20T08:14:14.845Z,50.908123
2023-04-20T08:15:14.838Z,50.908131
2023-04-20T08:16:14.878Z,50.908119
2023-04-20T08:17:14.830Z,50.908138
2023-04-20T08:18:14.819Z,50.908138
2023-04-20T08:20:15.788Z,50.908119
2023-04-20T08:21:14.764Z,50.908192
2023-04-20T08:22:15.773Z,50.908157
2023-04-20T08:23:14.792Z,50.908115
2023-04-20T08:24:14.751Z,50.908070
2023-04-20T08:25:14.768Z,50.908031
2023-04-20T08:26:14.739Z,50.908024
2023-04-20T08:27:14.728Z,50.908039
2023-04-20T08:28:24.201Z,50.908039
2023-04-20T08:29:16.712Z,50.908127
2023-04-20T08:30:14.702Z,50.908165
2023-04-20T08:31:14.725Z,50.908096
2023-04-20T08:32:14.695Z,50.908115
2023-04-20T08:33:14.735Z,50.908112
2023-04-20T08:34:14.694Z,50.908108
2023-04-20T08:35:14.671Z,50.908089
2023-04-20T08:36:14.663Z,50.908104
2023-04-20T08:37:14.656Z,50.908115
2023-04-20T08:38:18.043Z,50.908115
2023-04-20T08:39:16.632Z,50.908184
2023-04-20T08:40:14.630Z,50.908131
2023-04-20T08:41:14.619Z,50.908192
2023-04-20T08:42:14.616Z,50.908188
2023-04-20T08:43:14.661Z,50.908207
2023-04-20T08:44:14.662Z,50.908115
2023-04-20T08:45:14.592Z,50.908062
2023-04-20T08:46:14.598Z,50.908161
2023-04-20T08:47:14.634Z,50.908054
2023-04-20T08:48:14.600Z,50.908031
2023-04-20T08:49:14.568Z,50.908115
2023-04-20T08:50:14.552Z,50.908146
2023-04-20T08:51:14.542Z,50.908138
2023-04-20T08:52:14.641Z,50.908070
2023-04-20T08:53:14.538Z,50.907997
2023-04-20T08:54:14.621Z,50.908104
2023-04-20T08:55:14.516Z,50.908146
2023-04-20T08:56:14.508Z,50.908207
2023-04-20T08:57:14.498Z,50.908180
2023-04-20T08:58:14.492Z,50.908134
2023-04-20T08:59:14.511Z,50.908146
2023-04-20T09:00:14.497Z,50.908150
2023-04-20T09:01:17.703Z,50.908169
2023-04-20T09:02:16.521Z,50.908142
2023-04-20T09:03:14.761Z,50.908062
2023-04-20T09:04:14.748Z,50.907967
2023-04-20T09:05:14.484Z,50.908043
2023-04-20T09:06:14.432Z,50.908287
2023-04-20T09:07:14.425Z,50.908184
2023-04-20T09:08:14.414Z,50.908058
2023-04-20T09:09:14.435Z,50.908146
2023-04-20T09:10:14.406Z,50.908035
2023-04-20T09:11:14.389Z,50.908123
2023-04-20T09:12:14.377Z,50.908077
2023-04-20T09:13:14.378Z,50.908119
2023-04-20T09:14:14.414Z,50.908157
2023-04-20T09:15:14.369Z,50.908203
2023-04-20T09:16:14.381Z,50.908150
2023-04-20T09:17:14.587Z,50.908176
2023-04-20T09:18:14.336Z,50.908241
2023-04-20T09:19:14.354Z,50.908295
2023-04-20T09:20:14.322Z,50.908173
2023-04-20T09:21:14.319Z,50.908245
2023-04-20T09:22:14.307Z,50.908272
2023-04-20T09:23:14.298Z,50.908371
2023-04-20T09:24:14.435Z,50.908348
2023-04-20T09:25:14.306Z,50.908276
2023-04-20T09:26:14.276Z,50.908279
2023-04-20T09:27:14.350Z,50.908199
2023-04-20T09:28:14.282Z,50.908165
2023-04-20T09:29:14.273Z,50.908058
2023-04-20T09:30:14.244Z,50.908108
2023-04-20T09:31:15.080Z,50.908417
2023-04-20T09:32:15.266Z,50.908291
2023-04-20T09:33:14.228Z,50.908146
2023-04-20T09:34:14.292Z,50.908092
2023-04-20T09:35:14.203Z,50.907948
2023-04-20T09:36:14.240Z,50.908100
2023-04-20T09:37:14.190Z,50.908077
2023-04-20T09:38:14.179Z,50.908070
2023-04-20T09:39:14.196Z,50.907955
2023-04-20T09:40:14.181Z,50.908031
2023-04-20T09:41:14.164Z,50.908001
2023-04-20T09:42:14.184Z,50.908054
2023-04-20T09:43:15.438Z,50.908016
2023-04-20T09:44:15.413Z,50.907986
2023-04-20T09:45:14.131Z,50.908062
2023-04-20T09:46:14.150Z,50.908134
2023-04-20T09:47:14.110Z,50.907848
2023-04-20T09:48:14.104Z,50.908077
2023-04-20T09:49:14.122Z,50.908066
2023-04-20T09:50:24.748Z,50.908012
2023-04-20T09:51:16.080Z,50.908009
2023-04-20T09:52:14.082Z,50.908051
2023-04-20T09:53:14.064Z,50.908039
2023-04-20T09:54:14.086Z,50.908031
2023-04-20T09:55:14.066Z,50.908112
2023-04-20T09:56:14.057Z,50.908047
2023-04-20T09:57:14.028Z,50.907970
2023-04-20T09:58:14.036Z,50.908009
2023-04-20T09:59:14.052Z,50.908039
2023-04-20T10:00:14.012Z,50.908031
2023-04-20T10:01:14.068Z,50.908031
2023-04-20T10:02:14.077Z,50.908028
2023-04-20T10:03:14.144Z,50.907993
2023-04-20T10:04:14.122Z,50.908028
2023-04-20T10:05:13.973Z,50.908058
2023-04-20T10:06:13.966Z,50.908112
2023-04-20T10:07:13.953Z,50.908100
2023-04-20T10:08:13.959Z,50.908127
2023-04-20T10:09:13.967Z,50.908131
2023-04-20T10:10:13.953Z,50.908115
2023-04-20T10:11:13.922Z,50.908119
2023-04-20T10:12:13.913Z,50.908108
2023-04-20T10:13:13.916Z,50.908081
2023-04-20T10:14:13.926Z,50.908104
2023-04-20T10:15:13.890Z,50.908142
2023-04-20T10:16:13.922Z,50.908127
2023-04-20T10:17:13.927Z,50.908112
2023-04-20T10:18:13.999Z,50.908100
2023-04-20T10:19:13.892Z,50.908096
2023-04-20T10:20:13.855Z,50.908104
2023-04-20T10:21:13.861Z,50.908108
2023-04-20T10:22:13.839Z,50.908081
2023-04-20T10:23:13.832Z,50.908142
2023-04-20T10:24:13.856Z,50.908112
2023-04-20T10:25:13.812Z,50.908131
2023-04-20T10:26:13.811Z,50.908131
2023-04-20T10:27:13.808Z,50.908131
2023-04-20T10:28:13.796Z,50.908142
2023-04-20T10:29:13.805Z,50.908108
2023-04-20T10:30:13.788Z,50.908108
2023-04-20T10:31:13.839Z,50.908108
2023-04-20T10:32:13.764Z,50.908096
2023-04-20T10:33:13.801Z,50.908092
2023-04-20T10:34:13.773Z,50.908119
2023-04-20T10:35:13.744Z,50.908112
2023-04-20T10:36:13.728Z,50.908104
2023-04-20T10:37:13.756Z,50.908115
2023-04-20T10:38:13.722Z,50.908131
2023-04-20T10:39:13.730Z,50.908112
2023-04-20T10:40:13.699Z,50.908100
2023-04-20T10:41:13.723Z,50.908100
2023-04-20T10:42:15.051Z,50.908092
2023-04-20T10:43:13.684Z,50.908085
2023-04-20T10:44:13.713Z,50.908085
2023-04-20T10:45:13.668Z,50.908108
2023-04-20T10:46:13.685Z,50.908112
2023-04-20T10:47:13.647Z,50.908100
2023-04-20T10:48:14.523Z,50.908119
2023-04-20T10:49:13.659Z,50.908154
2023-04-20T10:50:13.626Z,50.908123
2023-04-20T10:51:13.620Z,50.908146
2023-04-20T10:52:13.613Z,50.908104
2023-04-20T10:53:13.607Z,50.908100
2023-04-20T10:54:14.588Z,50.908104
2023-04-20T10:55:13.587Z,50.908119
2023-04-20T10:56:13.606Z,50.908115
2023-04-20T10:57:13.576Z,50.908138
2023-04-20T10:58:13.561Z,50.908134
2023-04-20T10:59:13.592Z,50.908146
2023-04-20T11:00:13.756Z,50.908112
2023-04-20T11:01:13.538Z,50.908112
2023-04-20T11:02:13.642Z,50.908142
2023-04-20T11:03:13.671Z,50.908108
2023-04-20T11:04:14.999Z,50.908119
2023-04-20T11:05:13.655Z,50.908112
2023-04-20T11:06:13.502Z,50.908119
2023-04-20T11:07:13.585Z,50.908115
2023-04-20T11:08:13.486Z,50.908127
2023-04-20T11:09:13.500Z,50.908119
2023-04-20T11:10:13.467Z,50.908138
2023-04-20T11:11:13.454Z,50.908115
2023-04-20T11:12:14.464Z,50.908054
2023-04-20T11:13:13.451Z,50.908127
2023-04-20T11:14:13.461Z,50.908134
2023-04-20T11:15:13.438Z,50.908092
2023-04-20T11:16:13.596Z,50.908096
2023-04-20T11:17:13.567Z,50.908104
2023-04-20T11:18:13.421Z,50.908051
2023-04-20T11:19:13.428Z,50.908096
2023-04-20T11:20:13.387Z,50.908108
2023-04-20T11:21:13.385Z,50.908161
2023-04-20T11:22:13.387Z,50.908150
2023-04-20T11:23:13.372Z,50.908154
2023-04-20T11:24:13.384Z,50.908157
2023-04-20T11:25:13.353Z,50.908157